createdAt,value
2023-05-19T00:01:06.537Z,39.7
2023-05-19T00:06:07.069Z,39.7
2023-05-19T00:11:07.563Z,39.7
2023-05-19T00:16:08.117Z,39.6
2023-05-19T00:21:08.657Z,39.6
2023-05-19T00:26:09.153Z,39.5
2023-05-19T00:31:09.626Z,39.5
2023-05-19T00:36:10.108Z,39.4
2023-05-19T00:41:10.613Z,39.4
2023-05-19T00:46:11.188Z,39.3
2023-05-19T00:51:11.730Z,39.2
2023-05-19T00:56:12.209Z,39.2
2023-05-19T01:01:12.730Z,39.2
2023-05-19T01:06:13.367Z,39.1
2023-05-19T01:11:13.815Z,39.1
2023-05-19T01:16:14.338Z,39.1
2023-05-19T01:21:14.929Z,39
2023-05-19T01:26:15.392Z,38.9
2023-05-19T01:31:15.834Z,38.9
2023-05-19T01:36:16.325Z,38.9
2023-05-19T01:41:16.809Z,38.8
2023-05-19T01:46:17.295Z,38.7
2023-05-19T01:51:17.776Z,38.7
2023-05-19T01:56:18.242Z,38.7
2023-05-19T02:01:18.847Z,38.6
2023-05-19T02:06:19.416Z,38.6
2023-05-19T02:11:20.030Z,38.5
2023-05-19T02:16:20.823Z,38.5
2023-05-19T02:21:21.490Z,38.4
2023-05-19T02:26:21.956Z,38.4
2023-05-19T02:31:22.492Z,38.4
2023-05-19T02:36:22.940Z,38.3
2023-05-19T02:41:23.437Z,38.2
2023-05-19T02:46:23.907Z,38.2
2023-05-19T02:51:24.609Z,38.2
2023-05-19T02:56:25.176Z,38.1
2023-05-19T03:01:25.664Z,38.1
2023-05-19T03:06:26.118Z,38.1
2023-05-19T03:11:26.605Z,38
2023-05-19T03:16:27.125Z,38
2023-05-19T03:21:27.646Z,37.9
2023-05-19T03:26:28.101Z,37.9
2023-05-19T03:31:28.519Z,37.9
2023-05-19T03:36:28.913Z,37.8
2023-05-19T03:41:29.306Z,37.7
2023-05-19T03:46:29.864Z,37.7
2023-05-19T03:51:30.327Z,37.7
2023-05-19T03:56:30.710Z,37.7
2023-05-19T04:01:31.091Z,37.6
2023-05-19T04:06:31.491Z,37.6
2023-05-19T04:11:31.851Z,37.6
2023-05-19T04:16:32.260Z,37.5
2023-05-19T04:21:32.781Z,37.4
2023-05-19T04:26:33.137Z,37.4
2023-05-19T04:31:33.525Z,37.4
2023-05-19T04:36:34.047Z,37.4
2023-05-19T04:41:34.636Z,37.3
2023-05-19T04:46:35.017Z,37.2
2023-05-19T04:51:35.417Z,37.2
2023-05-19T04:56:35.776Z,37.2
2023-05-19T05:01:36.163Z,37.2
2023-05-19T05:06:36.504Z,37.1
2023-05-19T05:11:36.869Z,37.1
2023-05-19T05:16:37.264Z,37.1
2023-05-19T05:21:37.781Z,37
2023-05-19T05:26:38.145Z,37
2023-05-19T05:31:38.524Z,36.9
2023-05-19T05:46:59.207Z,36.8
2023-05-19T05:57:03.110Z,36.6
2023-05-19T06:02:03.679Z,36.6
2023-05-19T06:07:04.251Z,36.5
2023-05-19T06:12:04.626Z,36.5
2023-05-19T06:17:05.037Z,36.4
2023-05-19T06:22:05.516Z,36.4
2023-05-19T06:27:05.978Z,36.4
2023-05-19T06:32:06.366Z,36.4
2023-05-19T06:37:07.179Z,36.3
2023-05-19T06:42:07.555Z,36.3
2023-05-19T06:47:08.177Z,36.2
2023-05-19T06:52:08.759Z,36.2
2023-05-19T06:57:09.189Z,36.2
2023-05-19T07:02:09.848Z,36.2
2023-05-19T07:07:10.259Z,36.1
2023-05-19T07:12:10.632Z,36.1
2023-05-19T07:17:11.065Z,36.1
2023-05-19T07:22:11.468Z,36
2023-05-19T07:27:11.882Z,36
2023-05-19T07:32:12.291Z,36
2023-05-19T07:37:12.771Z,35.9
2023-05-19T07:42:13.143Z,35.6
2023-05-19T07:47:13.498Z,35.4
2023-05-19T07:52:13.880Z,35.4
2023-05-19T07:57:14.290Z,35.4
2023-05-19T08:02:14.825Z,35.4
2023-05-19T08:07:15.346Z,35.3
2023-05-19T08:12:16.341Z,35.3
2023-05-19T08:17:16.953Z,35.2
2023-05-19T08:22:17.499Z,35.2
2023-05-19T08:27:17.878Z,35.2
2023-05-19T08:32:18.225Z,35.2
2023-05-19T08:37:18.628Z,35.1
2023-05-19T08:42:18.997Z,35.1
2023-05-19T08:47:19.445Z,35.1
2023-05-19T08:52:19.788Z,35.1
2023-05-19T08:57:20.151Z,35
2023-05-19T09:02:20.496Z,35
2023-05-19T09:07:20.840Z,35
2023-05-19T09:12:21.211Z,34.9
2023-05-19T09:17:21.601Z,34.9
2023-05-19T09:22:22.094Z,34.9
2023-05-19T09:27:22.474Z,34.9
2023-05-19T09:32:22.888Z,34.8
2023-05-19T09:37:23.532Z,34.8
2023-05-19T09:42:23.886Z,34.8
2023-05-19T09:47:24.247Z,34.7
2023-05-19T09:52:24.573Z,34.7
2023-05-19T09:57:24.944Z,34.7
2023-05-19T10:02:25.285Z,34.7
2023-05-19T10:07:25.620Z,34.6
2023-05-19T10:12:26.095Z,34.6
2023-05-19T10:17:26.463Z,34.6
2023-05-19T10:22:26.887Z,34.6
2023-05-19T10:27:27.176Z,34.6
2023-05-19T10:32:27.518Z,34.5
2023-05-19T10:37:27.898Z,34.5
2023-05-19T10:42:28.426Z,34.5
2023-05-19T10:47:28.838Z,34.4
2023-05-19T10:52:29.206Z,34.4
2023-05-19T10:57:32.279Z,34.4
2023-05-19T11:02:32.640Z,34.4
2023-05-19T11:07:33.154Z,34.4
2023-05-19T11:12:33.435Z,34.3
2023-05-19T11:17:34.963Z,34.3
2023-05-19T11:22:35.404Z,34.2
2023-05-19T11:27:35.735Z,34.2
2023-05-19T11:32:36.088Z,34.2
2023-05-19T11:37:36.457Z,34.1
2023-05-19T11:42:36.734Z,34.1
2023-05-19T11:47:47.358Z,34.1
2023-05-19T11:52:56.696Z,34.1
2023-05-19T12:03:02.838Z,34
2023-05-19T12:08:03.285Z,34
2023-05-19T12:13:03.659Z,33.9
2023-05-19T12:18:04.090Z,33.9
2023-05-19T12:23:04.572Z,33.9
2023-05-19T12:28:04.996Z,33.9
2023-05-19T12:33:05.663Z,33.9
2023-05-19T12:38:06.050Z,33.9
2023-05-19T12:43:06.404Z,33.8
2023-05-19T12:48:07.001Z,33.8
2023-05-19T12:53:07.448Z,33.7
2023-05-19T12:58:07.759Z,33.7
2023-05-19T13:03:08.200Z,33.7
2023-05-19T13:08:08.674Z,33.7
2023-05-19T13:13:09.174Z,33.6
2023-05-19T13:18:09.523Z,33.4
2023-05-19T13:23:09.867Z,33.4
2023-05-19T13:28:10.407Z,33.4
2023-05-19T13:33:10.725Z,33.4
2023-05-19T13:38:11.214Z,33.4
2023-05-19T13:43:11.751Z,33.4
2023-05-19T13:48:12.204Z,33.3
2023-05-19T13:53:12.624Z,33.3
2023-05-19T13:58:12.992Z,33.2
2023-05-19T14:03:13.538Z,33.2
2023-05-19T14:08:13.995Z,33.2
2023-05-19T14:13:30.688Z,33.2
2023-05-19T14:18:31.833Z,33.2
2023-05-19T14:23:32.157Z,33.2
2023-05-19T14:28:32.936Z,33.1
2023-05-19T14:33:35.433Z,33.1
2023-05-19T14:38:36.134Z,33.1
2023-05-19T14:43:36.488Z,33.1
2023-05-19T14:48:36.792Z,33.1
2023-05-19T14:53:37.100Z,33.1
2023-05-19T14:58:37.885Z,33.1
2023-05-19T15:03:38.238Z,33
2023-05-19T15:08:39.037Z,33
2023-05-19T15:13:39.362Z,33
2023-05-19T15:18:39.688Z,32.9
2023-05-19T15:23:39.984Z,32.9
2023-05-19T15:28:41.042Z,32.9
2023-05-19T15:33:41.486Z,32.9
2023-05-19T15:38:41.777Z,32.9
2023-05-19T15:43:42.102Z,32.9
2023-05-19T15:48:42.496Z,32.8
2023-05-19T15:53:42.889Z,32.8
2023-05-19T15:58:44.123Z,32.8
2023-05-19T16:03:45.102Z,32.8
2023-05-19T16:08:45.696Z,32.7
2023-05-19T16:13:46.017Z,32.7
2023-05-19T16:18:46.527Z,32.7
2023-05-19T16:23:46.912Z,32.7
2023-05-19T16:28:47.410Z,34.5
2023-05-19T16:33:47.869Z,36.9
2023-05-19T16:38:48.373Z,39.6
2023-05-19T16:43:48.902Z,42.4
2023-05-19T16:48:49.529Z,43.2
2023-05-19T16:53:50.277Z,43.3
2023-05-19T16:58:51.213Z,43.3
2023-05-19T17:03:52.065Z,43.3
2023-05-19T17:08:53.123Z,43.1
2023-05-19T17:13:53.678Z,43.6
2023-05-19T17:18:54.428Z,43.3
2023-05-19T17:23:55.305Z,42.9
2023-05-19T17:28:56.007Z,42.9
2023-05-19T17:33:56.593Z,42.8
2023-05-19T17:38:57.269Z,42.8
2023-05-19T17:43:57.902Z,42.7
2023-05-19T17:48:58.499Z,42.7
2023-05-19T17:53:59.059Z,42.7
2023-05-19T17:58:59.666Z,42.6
2023-05-19T18:04:00.391Z,42.6
2023-05-19T18:09:01.275Z,42.6
2023-05-19T18:14:01.988Z,42.6
2023-05-19T18:19:02.628Z,42.5
2023-05-19T18:24:03.240Z,42.5
2023-05-19T18:29:03.820Z,42.4
2023-05-19T18:34:04.436Z,42.4
2023-05-19T18:39:05.025Z,42.4
2023-05-19T18:44:05.618Z,42.3
2023-05-19T18:49:06.172Z,42.2
2023-05-19T18:54:06.720Z,42.2
2023-05-19T18:59:07.309Z,42.2
2023-05-19T19:04:07.875Z,42.1
2023-05-19T19:09:08.436Z,42.1
2023-05-19T19:14:08.995Z,42.1
2023-05-19T19:19:09.715Z,42.1
2023-05-19T19:24:10.406Z,42
2023-05-19T19:29:10.975Z,41.9
2023-05-19T19:34:11.506Z,41.9
2023-05-19T19:39:12.017Z,41.9
2023-05-19T19:44:12.631Z,41.8
2023-05-19T19:49:13.155Z,41.7
2023-05-19T19:54:14.109Z,41.7
2023-05-19T19:59:14.641Z,41.6
2023-05-19T20:04:15.361Z,41.6
2023-05-19T20:09:16.003Z,41.6
2023-05-19T20:14:16.529Z,41.5
2023-05-19T20:19:17.214Z,41.4
2023-05-19T20:24:17.741Z,41.2
2023-05-19T20:29:18.374Z,40.9
2023-05-19T20:34:19.182Z,40.8
2023-05-19T20:39:20.410Z,40.8
2023-05-19T20:44:21.032Z,40.7
2023-05-19T20:49:21.578Z,40.6
2023-05-19T20:54:22.087Z,40.6
2023-05-19T20:59:22.830Z,40.6
2023-05-19T21:04:23.404Z,40.2
2023-05-19T21:09:23.944Z,40.1
2023-05-19T21:14:24.436Z,40.1
2023-05-19T21:19:25.130Z,40.1
2023-05-19T21:24:25.878Z,40
2023-05-19T21:29:26.651Z,39.9
2023-05-19T21:34:27.338Z,39.9
2023-05-19T21:39:27.834Z,39.8
2023-05-19T21:49:33.573Z,39.1
2023-05-19T21:54:34.054Z,39
2023-05-19T21:59:34.509Z,38.9
2023-05-19T22:04:34.979Z,38.9
2023-05-19T22:09:35.609Z,38.8
2023-05-19T22:14:36.088Z,38.7
2023-05-19T22:19:36.573Z,38.7
2023-05-19T22:24:37.034Z,38.6
2023-05-19T22:29:37.580Z,38.6
2023-05-19T22:34:38.100Z,38.6
2023-05-19T22:39:38.687Z,38.5
2023-05-19T22:44:39.139Z,38.4
2023-05-19T22:49:39.894Z,38.4
2023-05-19T22:54:40.331Z,38.4
2023-05-19T22:59:40.782Z,38.3
2023-05-19T23:04:41.238Z,38.2
2023-05-19T23:09:41.741Z,38.2
2023-05-19T23:14:42.208Z,38.2
2023-05-19T23:19:42.701Z,38.1
2023-05-19T23:24:43.291Z,38.1
2023-05-19T23:29:43.777Z,38
2023-05-19T23:34:44.207Z,38
2023-05-19T23:39:44.680Z,37.9
2023-05-19T23:44:45.082Z,37.9
2023-05-19T23:49:45.539Z,37.9
2023-05-19T23:54:45.985Z,37.8
2023-05-19T23:59:46.385Z,37.7
